Time;durP1;ratioP1;P1;durP2;ratioP2;P2;SDS_P1;SDS_P2;PMS_P1;PMS_P2;Temp;Humidity;BMP_temperature;BMP_pressure;BME280_temperature;BME280_humidity;BME280_pressure;Samples;Min_cycle;Max_cycle;Signal;HPM_P1;HPM_P2
2022/11/02 00:01:30;;;;;;;;;;;;;;;;;;5032538;28;20297;-61
2022/11/02 00:03:56;;;;;;;;;;;;;;;;;;5050060;28;20015;-61
2022/11/02 00:06:22;;;;;;;;;;;;;;;;;;5050501;28;20297;-62
2022/11/02 00:08:48;;;;;;;;;;;;;;;;;;5050080;28;19920;-61
2022/11/02 00:11:14;;;;;;;;;;;;;;;;;;5049929;28;19908;-61
2022/11/02 00:13:39;;;;;;;;;;;;;;;;;;5049956;28;19991;-61
2022/11/02 00:16:05;;;;;;;;;;;;;;;;;;5050155;28;20020;-61
2022/11/02 00:18:31;;;;;;;;;;;;;;;;;;5049855;28;20278;-61
2022/11/02 00:20:57;;;;;;;;;;;;;;;;;;5050119;28;19913;-61
2022/11/02 00:23:23;;;;;;;;;;;;;;;;;;5050005;28;20341;-61
2022/11/02 00:25:49;;;;;;;;;;;;;;;;;;5049523;28;19921;-61
2022/11/02 00:28:15;;;;;;;;;;;;;;;;;;5043271;28;20380;-61
2022/11/02 00:30:41;;;;;;;;;;;;;;;;;;5049693;28;19919;-61
2022/11/02 00:33:06;;;;;;;;;;;;;;;;;;5049780;28;19948;-61
2022/11/02 00:35:32;;;;;;;;;;;;;;;;;;5050089;28;20368;-60
2022/11/02 00:37:58;;;;;;;;;;;;;;;;;;5049372;28;19966;-60
2022/11/02 00:40:24;;;;;;;;;;;;;;;;;;5049260;28;20012;-61
2022/11/02 00:42:50;;;;;;;;;;;;;;;;;;5051467;28;19979;-61
2022/11/02 00:45:16;;;;;;;;;;;;;;;;;;5053499;28;20337;-61
2022/11/02 00:47:42;;;;;;;;;;;;;;;;;;5050249;28;19913;-61
2022/11/02 00:50:08;;;;;;;;;;;;;;;;;;5053148;28;19908;-61
2022/11/02 00:52:33;;;;;;;;;;;;;;;;;;5053514;28;19919;-61
2022/11/02 00:54:59;;;;;;;;;;;;;;;;;;5053747;28;19956;-61
2022/11/02 00:57:25;;;;;;;;;;;;;;;;;;5053294;28;20332;-61
2022/11/02 00:59:51;;;;;;;;;;;;;;;;;;5053473;28;19912;-62
2022/11/02 01:02:17;;;;;;;;;;;;;;;;;;5053598;28;20420;-62
2022/11/02 01:04:43;;;;;;;;;;;;;;;;;;5053188;28;19919;-62
2022/11/02 01:07:09;;;;;;;;;;;;;;;;;;5053696;28;20281;-62
2022/11/02 01:09:35;;;;;;;;;;;;;;;;;;5053482;28;19956;-61
2022/11/02 01:12:01;;;;;;;;;;;;;;;;;;5052727;28;19909;-61
2022/11/02 01:14:27;;;;;;;;;;;;;;;;;;5053265;28;19908;-61
2022/11/02 01:16:52;;;;;;;;;;;;;;;;;;5046654;28;19913;-61
2022/11/02 01:19:18;;;;;;;;;;;;;;;;;;5052647;28;20542;-62
2022/11/02 01:21:44;;;;;;;;;;;;;;;;;;5053014;28;20071;-62
2022/11/02 01:24:10;;;;;;;;;;;;;;;;;;5052438;28;20007;-62
2022/11/02 01:26:36;;;;;;;;;;;;;;;;;;5052658;28;19920;-62
2022/11/02 01:29:02;;;;;;;;;;;;;;;;;;5034566;28;20343;-61
2022/11/02 01:31:28;;;;;;;;;;;;;;;;;;5052520;28;19913;-61
2022/11/02 01:33:54;;;;;;;;;;;;;;;;;;5052579;28;20273;-61
2022/11/02 01:36:20;;;;;;;;;;;;;;;;;;5052570;28;19908;-61
2022/11/02 01:38:46;;;;;;;;;;;;;;;;;;5052283;28;19908;-61
2022/11/02 01:41:12;;;;;;;;;;;;;;;;;;5051577;28;19913;-60
2022/11/02 01:43:38;;;;;;;;;;;;;;;;;;5052488;28;19917;-61
2022/11/02 01:46:04;;;;;;;;;;;;;;;;;;5052634;28;20027;-61
2022/11/02 01:48:30;;;;;;;;;;;;;;;;;;5052263;28;20011;-62
2022/11/02 01:50:56;;;;;;;;;;;;;;;;;;5052500;28;19913;-60
2022/11/02 01:53:22;;;;;;;;;;;;;;;;;;5051662;28;19999;-61
2022/11/02 01:55:49;;;;;;;;;;;;;;;;;;5051150;28;21332;-61
2022/11/02 01:58:15;;;;;;;;;;;;;;;;;;5052201;28;20030;-61
2022/11/02 02:00:41;;;;;;;;;;;;;;;;;;5051871;28;19915;-61
2022/11/02 02:03:07;;;;;;;;;;;;;;;;;;5051946;28;19912;-61
2022/11/02 02:05:33;;;;;;;;;;;;;;;;;;5052141;28;20400;-61
2022/11/02 02:07:59;;;;;;;;;;;;;;;;;;5051453;28;19920;-61
2022/11/02 02:10:25;;;;;;;;;;;;;;;;;;5051611;28;20427;-60
2022/11/02 02:12:50;;;;;;;;;;;;;;;;;;5052296;28;20027;-61
2022/11/02 02:15:16;;;;;;;;;;;;;;;;;;5051848;28;19919;-61
2022/11/02 02:17:42;;;;;;;;;;;;;;;;;;5052061;28;19916;-62
2022/11/02 02:20:08;;;;;;;;;;;;;;;;;;5033703;28;19913;-61
2022/11/02 02:22:34;;;;;;;;;;;;;;;;;;5051374;28;19960;-61
2022/11/02 02:25:00;;;;;;;;;;;;;;;;;;5051209;28;19973;-61
2022/11/02 02:27:26;;;;;;;;;;;;;;;;;;5047879;28;19909;-61
2022/11/02 02:29:52;;;;;;;;;;;;;;;;;;5051448;28;19948;-61
2022/11/02 02:32:18;;;;;;;;;;;;;;;;;;5045976;28;19909;-61
2022/11/02 02:34:43;;;;;;;;;;;;;;;;;;5051558;28;19963;-61
2022/11/02 02:37:09;;;;;;;;;;;;;;;;;;5051767;28;19959;-61
2022/11/02 02:39:35;;;;;;;;;;;;;;;;;;5051251;28;19909;-62
2022/11/02 02:42:01;;;;;;;;;;;;;;;;;;5051219;28;20374;-62
2022/11/02 02:44:27;;;;;;;;;;;;;;;;;;5051343;28;19938;-61
2022/11/02 02:46:53;;;;;;;;;;;;;;;;;;5051032;28;19912;-61
2022/11/02 02:49:21;;;;;;;;;;;;;;;;;;5051651;28;20293;-62
2022/11/02 02:51:47;;;;;;;;;;;;;;;;;;5050906;28;19913;-62
2022/11/02 02:54:13;;;;;;;;;;;;;;;;;;5050535;28;20388;-61
2022/11/02 02:56:39;;;;;;;;;;;;;;;;;;5051155;28;20396;-62
2022/11/02 02:59:05;;;;;;;;;;;;;;;;;;5051211;28;19935;-61
2022/11/02 03:01:30;;;;;;;;;;;;;;;;;;5050686;28;19912;-62
2022/11/02 03:03:56;;;;;;;;;;;;;;;;;;5050985;28;19913;-63
2022/11/02 03:06:23;;;;;;;;;;;;;;;;;;5047851;28;19909;-62
2022/11/02 03:08:49;;;;;;;;;;;;;;;;;;5045392;28;20393;-62
2022/11/02 03:11:15;;;;;;;;;;;;;;;;;;5050759;28;19916;-62
2022/11/02 03:13:41;;;;;;;;;;;;;;;;;;5050950;28;19909;-61
2022/11/02 03:16:06;;;;;;;;;;;;;;;;;;5050972;28;19947;-60
2022/11/02 03:18:32;;;;;;;;;;;;;;;;;;5050586;28;19947;-61
2022/11/02 03:20:58;;;;;;;;;;;;;;;;;;5050658;28;20300;-62
2022/11/02 03:23:24;;;;;;;;;;;;;;;;;;5050249;28;19943;-61
2022/11/02 03:25:50;;;;;;;;;;;;;;;;;;5050491;28;19924;-63
2022/11/02 03:28:16;;;;;;;;;;;;;;;;;;5050716;28;19917;-62
2022/11/02 03:30:42;;;;;;;;;;;;;;;;;;5049893;28;19920;-62
2022/11/02 03:33:08;;;;;;;;;;;;;;;;;;5050298;28;19909;-61
2022/11/02 03:35:34;;;;;;;;;;;;;;;;;;5044779;28;19909;-62
2022/11/02 03:37:59;;;;;;;;;;;;;;;;;;5048726;28;19920;-61
2022/11/02 03:40:25;;;;;;;;;;;;;;;;;;5050554;28;20003;-62
2022/11/02 03:42:51;;;;;;;;;;;;;;;;;;5050130;28;19920;-62
2022/11/02 03:45:17;;;;;;;;;;;;;;;;;;5049732;28;20357;-62
2022/11/02 03:47:43;;;;;;;;;;;;;;;;;;5049946;28;19927;-62
2022/11/02 03:50:09;;;;;;;;;;;;;;;;;;5050726;28;19920;-61
2022/11/02 03:52:35;;;;;;;;;;;;;;;;;;5049567;28;20369;-61
2022/11/02 03:55:01;;;;;;;;;;;;;;;;;;5049920;28;19917;-61
2022/11/02 03:57:27;;;;;;;;;;;;;;;;;;5049857;28;19913;-61
2022/11/02 03:59:53;;;;;;;;;;;;;;;;;;5050394;28;19924;-61
2022/11/02 04:02:18;;;;;;;;;;;;;;;;;;5049746;28;19921;-62
2022/11/02 04:04:44;;;;;;;;;;;;;;;;;;5032387;28;19909;-61
2022/11/02 04:07:10;;;;;;;;;;;;;;;;;;5031523;28;19986;-62
2022/11/02 04:09:36;;;;;;;;;;;;;;;;;;5049773;28;20373;-62
2022/11/02 04:14:47;;;;;;;;;;;;;;;;;;5049597;28;19915;-62
2022/11/02 04:19:57;;;;;;;;;;;;;;;;;;5049478;28;19920;-61
2022/11/02 04:25:20;;;;;;;;;;;;;;;;;;5049411;28;20058;-61
2022/11/02 04:27:46;;;;;;;;;;;;;;;;;;5050064;28;19909;-60
2022/11/02 04:30:12;;;;;;;;;;;;;;;;;;5049374;28;19959;-61
2022/11/02 04:35:22;;;;;;;;;;;;;;;;;;5049557;28;19916;-61
2022/11/02 04:40:33;;;;;;;;;;;;;;;;;;5049251;28;19918;-61
2022/11/02 04:42:59;;;;;;;;;;;;;;;;;;5048972;28;19925;-60
2022/11/02 04:45:25;;;;;;;;;;;;;;;;;;5049914;28;20369;-61
2022/11/02 04:47:50;;;;;;;;;;;;;;;;;;5048306;28;19913;-61
2022/11/02 04:50:16;;;;;;;;;;;;;;;;;;5048703;28;19948;-60
2022/11/02 04:52:42;;;;;;;;;;;;;;;;;;5049282;28;19970;-61
2022/11/02 04:55:08;;;;;;;;;;;;;;;;;;5049654;28;19909;-60
2022/11/02 04:57:34;;;;;;;;;;;;;;;;;;5049115;28;20363;-61
2022/11/02 05:00:00;;;;;;;;;;;;;;;;;;5048909;28;19913;-61
2022/11/02 05:02:26;;;;;;;;;;;;;;;;;;5049083;28;19924;-61
2022/11/02 05:04:51;;;;;;;;;;;;;;;;;;5048870;28;19959;-61
2022/11/02 05:07:17;;;;;;;;;;;;;;;;;;5049584;28;19935;-62
2022/11/02 05:09:43;;;;;;;;;;;;;;;;;;5048826;28;19913;-62
2022/11/02 05:12:09;;;;;;;;;;;;;;;;;;5049059;28;20399;-62
2022/11/02 05:14:35;;;;;;;;;;;;;;;;;;5049100;28;19913;-63
2022/11/02 05:17:01;;;;;;;;;;;;;;;;;;5049293;28;20288;-62
2022/11/02 05:19:27;;;;;;;;;;;;;;;;;;5045374;28;20407;-62
2022/11/02 05:21:53;;;;;;;;;;;;;;;;;;5049190;28;20003;-61
2022/11/02 05:24:19;;;;;;;;;;;;;;;;;;5043959;28;19917;-62
2022/11/02 05:26:44;;;;;;;;;;;;;;;;;;5049057;28;19913;-61
2022/11/02 05:29:10;;;;;;;;;;;;;;;;;;5049307;28;20706;-61
2022/11/02 05:31:36;;;;;;;;;;;;;;;;;;5052389;28;19912;-62
2022/11/02 05:34:02;;;;;;;;;;;;;;;;;;5052319;28;19913;-62
2022/11/02 05:36:28;;;;;;;;;;;;;;;;;;5052881;28;19948;-61
2022/11/02 05:38:54;;;;;;;;;;;;;;;;;;5052510;28;19908;-61
2022/11/02 05:41:20;;;;;;;;;;;;;;;;;;5052391;28;19959;-61
2022/11/02 05:43:46;;;;;;;;;;;;;;;;;;5052379;28;19960;-61
2022/11/02 05:46:14;;;;;;;;;;;;;;;;;;5052861;28;19916;-60
2022/11/02 05:48:40;;;;;;;;;;;;;;;;;;5052019;28;19970;-63
2022/11/02 05:51:06;;;;;;;;;;;;;;;;;;5052302;28;20377;-61
2022/11/02 05:53:32;;;;;;;;;;;;;;;;;;5052377;28;19913;-62
2022/11/02 05:55:58;;;;;;;;;;;;;;;;;;5051619;28;19959;-62
2022/11/02 05:58:24;;;;;;;;;;;;;;;;;;5052257;28;19912;-62
2022/11/02 06:00:50;;;;;;;;;;;;;;;;;;5051544;28;19989;-61
2022/11/02 06:03:16;;;;;;;;;;;;;;;;;;5051694;28;20348;-62
2022/11/02 06:05:42;;;;;;;;;;;;;;;;;;5051499;28;20430;-61
2022/11/02 06:08:08;;;;;;;;;;;;;;;;;;5033281;28;19917;-61
2022/11/02 06:10:34;;;;;;;;;;;;;;;;;;5051508;28;19913;-62
2022/11/02 06:13:00;;;;;;;;;;;;;;;;;;5051601;28;19913;-61
2022/11/02 06:15:26;;;;;;;;;;;;;;;;;;5051668;28;20297;-60
2022/11/02 06:17:52;;;;;;;;;;;;;;;;;;5051736;28;19948;-61
2022/11/02 06:20:18;;;;;;;;;;;;;;;;;;5050999;28;19924;-62
2022/11/02 06:22:44;;;;;;;;;;;;;;;;;;5050571;28;19959;-62
2022/11/02 06:25:10;;;;;;;;;;;;;;;;;;5051816;28;19980;-61
2022/11/02 06:27:36;;;;;;;;;;;;;;;;;;5051006;28;19909;-61
2022/11/02 06:30:02;;;;;;;;;;;;;;;;;;5050189;28;19996;-61
2022/11/02 06:32:27;;;;;;;;;;;;;;;;;;5051285;28;19909;-61
2022/11/02 06:34:53;;;;;;;;;;;;;;;;;;5051223;28;19999;-61
2022/11/02 06:37:19;;;;;;;;;;;;;;;;;;5051118;28;19917;-61
2022/11/02 06:39:45;;;;;;;;;;;;;;;;;;5050586;28;20373;-62
2022/11/02 06:42:11;;;;;;;;;;;;;;;;;;5050917;28;20397;-61
2022/11/02 06:44:37;;;;;;;;;;;;;;;;;;5048968;28;19909;-61
2022/11/02 06:47:03;;;;;;;;;;;;;;;;;;5042752;28;20011;-61
2022/11/02 06:49:29;;;;;;;;;;;;;;;;;;5051027;28;19915;-69
2022/11/02 06:51:55;;;;;;;;;;;;;;;;;;5050601;28;20396;-70
2022/11/02 06:54:20;;;;;;;;;;;;;;;;;;5046173;28;19917;-71
2022/11/02 06:56:46;;;;;;;;;;;;;;;;;;5049230;28;20388;-71
2022/11/02 06:59:12;;;;;;;;;;;;;;;;;;5050336;28;19909;-70
2022/11/02 07:01:38;;;;;;;;;;;;;;;;;;5050623;28;19963;-72
2022/11/02 07:04:04;;;;;;;;;;;;;;;;;;5050943;28;19909;-72
2022/11/02 07:06:30;;;;;;;;;;;;;;;;;;5050895;28;20297;-71
2022/11/02 07:08:56;;;;;;;;;;;;;;;;;;5050737;28;19913;-72
2022/11/02 07:11:22;;;;;;;;;;;;;;;;;;5050150;28;20650;-72
2022/11/02 07:13:47;;;;;;;;;;;;;;;;;;5049688;28;19913;-71
2022/11/02 07:16:13;;;;;;;;;;;;;;;;;;5050148;28;20380;-72
2022/11/02 07:18:39;;;;;;;;;;;;;;;;;;5050395;28;19909;-72
2022/11/02 07:21:05;;;;;;;;;;;;;;;;;;5049700;28;20293;-71
2022/11/02 07:23:31;;;;;;;;;;;;;;;;;;5050457;28;19913;-77
2022/11/02 07:25:57;;;;;;;;;;;;;;;;;;5048118;28;20694;-75
2022/11/02 07:28:23;;;;;;;;;;;;;;;;;;5024830;28;19967;-77
2022/11/02 07:30:49;;;;;;;;;;;;;;;;;;5038898;28;19960;-76
2022/11/02 07:33:15;;;;;;;;;;;;;;;;;;5045446;28;19915;-76
2022/11/02 07:35:41;;;;;;;;;;;;;;;;;;5049507;28;20008;-75
2022/11/02 07:38:07;;;;;;;;;;;;;;;;;;5050011;28;19962;-77
2022/11/02 07:40:33;;;;;;;;;;;;;;;;;;5031697;28;19916;-78
2022/11/02 07:42:59;;;;;;;;;;;;;;;;;;5044926;28;19928;-79
2022/11/02 07:45:24;;;;;;;;;;;;;;;;;;5046505;28;20309;-78
2022/11/02 07:47:50;;;;;;;;;;;;;;;;;;5050284;28;19931;-76
2022/11/02 07:50:16;;;;;;;;;;;;;;;;;;5049927;28;19909;-78
2022/11/02 07:52:42;;;;;;;;;;;;;;;;;;5049312;28;19909;-78
2022/11/02 07:55:08;;;;;;;;;;;;;;;;;;5050176;28;19952;-78
2022/11/02 07:57:34;;;;;;;;;;;;;;;;;;5049899;28;19960;-78
2022/11/02 08:00:00;;;;;;;;;;;;;;;;;;5050154;28;20324;-79
2022/11/02 08:02:26;;;;;;;;;;;;;;;;;;5049712;28;19921;-78
2022/11/02 08:04:52;;;;;;;;;;;;;;;;;;5049737;28;19909;-79
2022/11/02 08:07:17;;;;;;;;;;;;;;;;;;5049819;28;19932;-78
2022/11/02 08:09:43;;;;;;;;;;;;;;;;;;5050022;28;19940;-79
2022/11/02 08:12:09;;;;;;;;;;;;;;;;;;5049634;28;20427;-76
2022/11/02 08:14:35;;;;;;;;;;;;;;;;;;5050573;28;20002;-79
2022/11/02 08:17:01;;;;;;;;;;;;;;;;;;5049689;28;19920;-78
2022/11/02 08:19:27;;;;;;;;;;;;;;;;;;5031335;28;19909;-79
2022/11/02 08:21:55;;;;;;;;;;;;;;;;;;5050028;28;19967;-80
2022/11/02 08:24:20;;;;;;;;;;;;;;;;;;5049827;28;19925;-79
2022/11/02 08:26:46;;;;;;;;;;;;;;;;;;5049688;28;19919;-79
2022/11/02 08:29:12;;;;;;;;;;;;;;;;;;5049622;28;19940;-80
2022/11/02 08:31:38;;;;;;;;;;;;;;;;;;5049541;28;19909;-79
2022/11/02 08:34:04;;;;;;;;;;;;;;;;;;5050217;28;19920;-79
2022/11/02 08:36:30;;;;;;;;;;;;;;;;;;5049563;28;19958;-80
2022/11/02 08:38:56;;;;;;;;;;;;;;;;;;5049161;28;20003;-80
2022/11/02 08:41:21;;;;;;;;;;;;;;;;;;5048867;28;19920;-80
2022/11/02 08:43:47;;;;;;;;;;;;;;;;;;5050095;28;19912;-79
2022/11/02 08:46:13;;;;;;;;;;;;;;;;;;5049444;28;20008;-79
2022/11/02 08:48:39;;;;;;;;;;;;;;;;;;5049414;28;19913;-79
2022/11/02 08:51:07;;;;;;;;;;;;;;;;;;5049782;28;19916;-79
2022/11/02 08:53:33;;;;;;;;;;;;;;;;;;5043347;28;20323;-79
2022/11/02 08:55:59;;;;;;;;;;;;;;;;;;5048943;28;19909;-79
2022/11/02 08:58:25;;;;;;;;;;;;;;;;;;5048559;28;19916;-78
2022/11/02 09:00:51;;;;;;;;;;;;;;;;;;5048653;28;19912;-79
2022/11/02 09:03:17;;;;;;;;;;;;;;;;;;5050568;28;19916;-79
2022/11/02 09:05:43;;;;;;;;;;;;;;;;;;5053351;28;19945;-79
2022/11/02 09:08:09;;;;;;;;;;;;;;;;;;5053100;28;19913;-79
2022/11/02 09:10:35;;;;;;;;;;;;;;;;;;5052840;28;19951;-78
2022/11/02 09:13:01;;;;;;;;;;;;;;;;;;5053084;28;20016;-79
2022/11/02 09:15:27;;;;;;;;;;;;;;;;;;5053886;28;19951;-79
2022/11/02 09:17:53;;;;;;;;;;;;;;;;;;5052974;28;19916;-78
2022/11/02 09:20:19;;;;;;;;;;;;;;;;;;5052241;28;19913;-78
2022/11/02 09:22:45;;;;;;;;;;;;;;;;;;5052894;28;19927;-78
2022/11/02 09:25:11;;;;;;;;;;;;;;;;;;5052505;28;20412;-79
2022/11/02 09:27:36;;;;;;;;;;;;;;;;;;5052791;28;20289;-78
2022/11/02 09:30:03;;;;;;;;;;;;;;;;;;5052945;28;19995;-79
2022/11/02 09:32:32;;;;;;;;;;;;;;;;;;5052611;28;19923;-79
2022/11/02 09:34:58;;;;;;;;;;;;;;;;;;5052827;28;19916;-79
2022/11/02 09:37:24;;;;;;;;;;;;;;;;;;5053132;28;19916;-78
2022/11/02 09:39:49;;;;;;;;;;;;;;;;;;5052066;28;19952;-79
2022/11/02 09:42:15;;;;;;;;;;;;;;;;;;5052396;28;20313;-77
2022/11/02 09:44:41;;;;;;;;;;;;;;;;;;5052529;28;19962;-78
2022/11/02 09:47:08;;;;;;;;;;;;;;;;;;5052498;28;20389;-79
2022/11/02 09:49:34;;;;;;;;;;;;;;;;;;5052204;28;19920;-78
2022/11/02 09:52:00;;;;;;;;;;;;;;;;;;5052398;28;19917;-78
2022/11/02 09:54:26;;;;;;;;;;;;;;;;;;5052236;28;20023;-78
2022/11/02 09:56:51;;;;;;;;;;;;;;;;;;5052507;28;20527;-78
2022/11/02 09:59:17;;;;;;;;;;;;;;;;;;5051954;28;19917;-77
2022/11/02 10:01:43;;;;;;;;;;;;;;;;;;5052422;28;19913;-78
2022/11/02 10:04:09;;;;;;;;;;;;;;;;;;5033981;28;19920;-78
2022/11/02 10:06:35;;;;;;;;;;;;;;;;;;5052317;28;19913;-78
2022/11/02 10:09:01;;;;;;;;;;;;;;;;;;5051832;28;20342;-78
2022/11/02 10:11:27;;;;;;;;;;;;;;;;;;5052406;28;19908;-78
2022/11/02 10:13:53;;;;;;;;;;;;;;;;;;5052099;28;19958;-78
2022/11/02 10:16:19;;;;;;;;;;;;;;;;;;5050686;28;19912;-79
2022/11/02 10:18:49;;;;;;;;;;;;;;;;;;5051524;28;19916;-78
2022/11/02 10:21:15;;;;;;;;;;;;;;;;;;5051544;28;19978;-78
2022/11/02 10:23:41;;;;;;;;;;;;;;;;;;5051157;28;19933;-78
2022/11/02 10:26:06;;;;;;;;;;;;;;;;;;5052143;28;19921;-76
2022/11/02 10:28:32;;;;;;;;;;;;;;;;;;5051240;28;19909;-78
2022/11/02 10:30:58;;;;;;;;;;;;;;;;;;5051269;28;19913;-78
2022/11/02 10:33:25;;;;;;;;;;;;;;;;;;5051759;28;19909;-78
2022/11/02 10:35:51;;;;;;;;;;;;;;;;;;5051074;28;20023;-79
2022/11/02 10:38:17;;;;;;;;;;;;;;;;;;5051030;28;19957;-77
2022/11/02 10:40:42;;;;;;;;;;;;;;;;;;5050744;28;20019;-78
2022/11/02 10:43:08;;;;;;;;;;;;;;;;;;5051271;28;19928;-77
2022/11/02 10:45:35;;;;;;;;;;;;;;;;;;5051030;28;20388;-76
2022/11/02 10:48:01;;;;;;;;;;;;;;;;;;5051336;28;19909;-77
2022/11/02 10:50:27;;;;;;;;;;;;;;;;;;5051522;28;20431;-78
2022/11/02 10:52:53;;;;;;;;;;;;;;;;;;5051476;28;20569;-78
2022/11/02 10:55:18;;;;;;;;;;;;;;;;;;5051016;28;19909;-78
2022/11/02 10:57:44;;;;;;;;;;;;;;;;;;5051545;28;19966;-78
2022/11/02 11:00:10;;;;;;;;;;;;;;;;;;5050285;28;20288;-78
2022/11/02 11:02:36;;;;;;;;;;;;;;;;;;5050528;28;19974;-78
2022/11/02 11:05:02;;;;;;;;;;;;;;;;;;5051387;28;20340;-78
2022/11/02 11:07:28;;;;;;;;;;;;;;;;;;5050215;28;19920;-78
2022/11/02 11:09:54;;;;;;;;;;;;;;;;;;5051047;28;20015;-78
2022/11/02 11:12:21;;;;;;;;;;;;;;;;;;5050873;28;20400;-78
2022/11/02 11:14:47;;;;;;;;;;;;;;;;;;5046926;28;19916;-76
2022/11/02 11:17:12;;;;;;;;;;;;;;;;;;5050568;28;19913;-78
2022/11/02 11:19:38;;;;;;;;;;;;;;;;;;5050489;28;20285;-77
2022/11/02 11:22:04;;;;;;;;;;;;;;;;;;5050231;28;19977;-78
2022/11/02 11:24:30;;;;;;;;;;;;;;;;;;5029136;28;19925;-77
2022/11/02 11:26:56;;;;;;;;;;;;;;;;;;5030423;28;19944;-77
2022/11/02 11:29:22;;;;;;;;;;;;;;;;;;5030322;28;19924;-77
2022/11/02 11:31:48;;;;;;;;;;;;;;;;;;5030765;28;19920;-78
2022/11/02 11:34:13;;;;;;;;;;;;;;;;;;5030392;28;20377;-77
2022/11/02 11:36:39;;;;;;;;;;;;;;;;;;5030067;28;19916;-76
2022/11/02 11:39:05;;;;;;;;;;;;;;;;;;5030468;28;19913;-76
2022/11/02 11:41:31;;;;;;;;;;;;;;;;;;5030128;28;19971;-77
2022/11/02 11:43:57;;;;;;;;;;;;;;;;;;5030565;28;19917;-77
2022/11/02 11:46:23;;;;;;;;;;;;;;;;;;5030510;28;19919;-77
2022/11/02 11:48:49;;;;;;;;;;;;;;;;;;5030581;28;20002;-78
2022/11/02 11:51:15;;;;;;;;;;;;;;;;;;5030209;28;20008;-78
2022/11/02 11:53:41;;;;;;;;;;;;;;;;;;5029947;28;19921;-76
2022/11/02 11:56:06;;;;;;;;;;;;;;;;;;5030224;28;19941;-76
2022/11/02 11:58:32;;;;;;;;;;;;;;;;;;5030131;28;19924;-77
2022/11/02 12:00:58;;;;;;;;;;;;;;;;;;5030070;28;19909;-78
2022/11/02 12:03:24;;;;;;;;;;;;;;;;;;5029955;28;19917;-78
2022/11/02 12:05:50;;;;;;;;;;;;;;;;;;5030363;28;20012;-77
2022/11/02 12:08:16;;;;;;;;;;;;;;;;;;5029818;28;19916;-78
2022/11/02 12:10:42;;;;;;;;;;;;;;;;;;5029923;28;19928;-77
2022/11/02 12:13:08;;;;;;;;;;;;;;;;;;5030561;28;20297;-78
2022/11/02 12:15:34;;;;;;;;;;;;;;;;;;5029666;28;20353;-77
2022/11/02 12:18:00;;;;;;;;;;;;;;;;;;5029300;28;19917;-77
2022/11/02 12:20:26;;;;;;;;;;;;;;;;;;5029850;28;20288;-77
2022/11/02 12:22:52;;;;;;;;;;;;;;;;;;5029965;28;19920;-77
2022/11/02 12:25:18;;;;;;;;;;;;;;;;;;5043034;28;19921;-76
2022/11/02 12:27:46;;;;;;;;;;;;;;;;;;5049626;28;20411;-77
2022/11/02 12:30:13;;;;;;;;;;;;;;;;;;5050011;28;19931;-77
2022/11/02 12:32:39;;;;;;;;;;;;;;;;;;5049496;28;20018;-78
2022/11/02 12:35:05;;;;;;;;;;;;;;;;;;5049847;28;20398;-77
2022/11/02 12:37:31;;;;;;;;;;;;;;;;;;5049868;28;19915;-77
2022/11/02 12:39:57;;;;;;;;;;;;;;;;;;5053215;28;19909;-76
2022/11/02 12:42:23;;;;;;;;;;;;;;;;;;5053794;28;19921;-77
2022/11/02 12:44:49;;;;;;;;;;;;;;;;;;5054197;28;19919;-77
2022/11/02 12:47:15;;;;;;;;;;;;;;;;;;5053290;28;20530;-77
2022/11/02 12:49:41;;;;;;;;;;;;;;;;;;5053501;28;19915;-77
2022/11/02 12:52:06;;;;;;;;;;;;;;;;;;5053695;28;20377;-78
2022/11/02 12:54:32;;;;;;;;;;;;;;;;;;5053661;28;20343;-77
2022/11/02 12:56:58;;;;;;;;;;;;;;;;;;5053799;28;19917;-77
2022/11/02 12:59:24;;;;;;;;;;;;;;;;;;5053380;28;20412;-77
2022/11/02 13:01:51;;;;;;;;;;;;;;;;;;5053269;28;19920;-76
2022/11/02 13:04:17;;;;;;;;;;;;;;;;;;5053221;28;20285;-77
2022/11/02 13:06:43;;;;;;;;;;;;;;;;;;5052072;28;19909;-77
2022/11/02 13:09:09;;;;;;;;;;;;;;;;;;5053245;28;19913;-78
2022/11/02 13:11:35;;;;;;;;;;;;;;;;;;5053173;28;19913;-77
2022/11/02 13:14:00;;;;;;;;;;;;;;;;;;5052624;28;19960;-78
2022/11/02 13:16:26;;;;;;;;;;;;;;;;;;5050286;28;19936;-79
2022/11/02 13:18:52;;;;;;;;;;;;;;;;;;5052714;28;19948;-76
2022/11/02 13:21:19;;;;;;;;;;;;;;;;;;5053249;28;19916;-78
2022/11/02 13:23:45;;;;;;;;;;;;;;;;;;5053145;28;20007;-78
2022/11/02 13:26:11;;;;;;;;;;;;;;;;;;5052652;28;20012;-78
2022/11/02 13:28:37;;;;;;;;;;;;;;;;;;5053131;28;20023;-77
2022/11/02 13:31:04;;;;;;;;;;;;;;;;;;5052103;28;19909;-77
2022/11/02 13:33:29;;;;;;;;;;;;;;;;;;5034874;28;19913;-78
2022/11/02 13:35:55;;;;;;;;;;;;;;;;;;5053028;28;19961;-77
2022/11/02 13:38:21;;;;;;;;;;;;;;;;;;5052402;28;19917;-78
2022/11/02 13:40:47;;;;;;;;;;;;;;;;;;5051192;28;19952;-78
2022/11/02 13:43:13;;;;;;;;;;;;;;;;;;5052826;28;19983;-79
2022/11/02 13:45:39;;;;;;;;;;;;;;;;;;5052118;28;19913;-77
2022/11/02 13:48:05;;;;;;;;;;;;;;;;;;5052201;28;20369;-79
2022/11/02 13:50:31;;;;;;;;;;;;;;;;;;5050927;28;19967;-78
2022/11/02 13:52:57;;;;;;;;;;;;;;;;;;5052139;28;19919;-78
2022/11/02 13:55:23;;;;;;;;;;;;;;;;;;5052722;28;19917;-78
2022/11/02 13:57:49;;;;;;;;;;;;;;;;;;5052225;28;19935;-77
2022/11/02 14:00:15;;;;;;;;;;;;;;;;;;5051992;28;19913;-77
2022/11/02 14:02:41;;;;;;;;;;;;;;;;;;5051845;28;19921;-78
2022/11/02 14:05:06;;;;;;;;;;;;;;;;;;5034132;28;19909;-78
2022/11/02 14:07:32;;;;;;;;;;;;;;;;;;5052448;28;19967;-75
2022/11/02 14:09:58;;;;;;;;;;;;;;;;;;5049793;28;19967;-79
2022/11/02 14:12:24;;;;;;;;;;;;;;;;;;5051238;28;19923;-78
2022/11/02 14:14:50;;;;;;;;;;;;;;;;;;5051227;28;19948;-79
2022/11/02 14:17:16;;;;;;;;;;;;;;;;;;5032845;28;19960;-80
2022/11/02 14:19:42;;;;;;;;;;;;;;;;;;5039414;28;19954;-79
2022/11/02 14:22:08;;;;;;;;;;;;;;;;;;5044755;28;19925;-79
2022/11/02 14:24:38;;;;;;;;;;;;;;;;;;5051690;28;19999;-79
2022/11/02 14:27:04;;;;;;;;;;;;;;;;;;5051946;28;19912;-79
2022/11/02 14:29:30;;;;;;;;;;;;;;;;;;5048734;28;19912;-81
2022/11/02 14:31:56;;;;;;;;;;;;;;;;;;5045113;28;19964;-80
2022/11/02 14:34:21;;;;;;;;;;;;;;;;;;5050041;28;19917;-80
2022/11/02 14:36:47;;;;;;;;;;;;;;;;;;5051503;28;20281;-80
2022/11/02 14:39:13;;;;;;;;;;;;;;;;;;5047301;28;19955;-81
2022/11/02 14:41:39;;;;;;;;;;;;;;;;;;5033093;28;20016;-81
2022/11/02 14:44:05;;;;;;;;;;;;;;;;;;5050816;28;19916;-81
2022/11/02 14:46:31;;;;;;;;;;;;;;;;;;5050992;28;19962;-81
2022/11/02 14:48:57;;;;;;;;;;;;;;;;;;5028522;28;20332;-83
2022/11/02 14:51:23;;;;;;;;;;;;;;;;;;5046229;28;19987;-81
2022/11/02 14:53:49;;;;;;;;;;;;;;;;;;5050554;28;20297;-81
2022/11/02 14:56:14;;;;;;;;;;;;;;;;;;5050465;28;20011;-81
2022/11/02 14:58:40;;;;;;;;;;;;;;;;;;5050821;28;19913;-82
2022/11/02 15:01:06;;;;;;;;;;;;;;;;;;5029458;28;20289;-81
2022/11/02 15:03:32;;;;;;;;;;;;;;;;;;5050741;28;19924;-82
2022/11/02 15:05:58;;;;;;;;;;;;;;;;;;5050695;28;20396;-80
2022/11/02 15:08:24;;;;;;;;;;;;;;;;;;5048371;28;19913;-81
2022/11/02 15:10:50;;;;;;;;;;;;;;;;;;5049289;28;19967;-81
2022/11/02 15:13:16;;;;;;;;;;;;;;;;;;5050123;28;20491;-80
2022/11/02 15:15:41;;;;;;;;;;;;;;;;;;5050769;28;19913;-82
2022/11/02 15:18:07;;;;;;;;;;;;;;;;;;5044596;28;20293;-82
2022/11/02 15:20:33;;;;;;;;;;;;;;;;;;5046753;28;20039;-80
2022/11/02 15:22:59;;;;;;;;;;;;;;;;;;5032211;28;19921;-82
2022/11/02 15:25:25;;;;;;;;;;;;;;;;;;5049621;28;19928;-82
2022/11/02 15:27:51;;;;;;;;;;;;;;;;;;5049925;28;19916;-80
2022/11/02 15:30:17;;;;;;;;;;;;;;;;;;5051327;28;19912;-80
2022/11/02 15:32:43;;;;;;;;;;;;;;;;;;5050713;28;20309;-81
2022/11/02 15:35:09;;;;;;;;;;;;;;;;;;5046832;28;19964;-82
2022/11/02 15:37:34;;;;;;;;;;;;;;;;;;5040064;28;20403;-82
2022/11/02 15:40:01;;;;;;;;;;;;;;;;;;5044035;28;19912;-82
2022/11/02 15:42:27;;;;;;;;;;;;;;;;;;5048521;28;19940;-80
2022/11/02 15:44:54;;;;;;;;;;;;;;;;;;5049797;28;20343;-82
2022/11/02 15:47:20;;;;;;;;;;;;;;;;;;5047042;28;19944;-81
2022/11/02 15:49:46;;;;;;;;;;;;;;;;;;5049954;28;20431;-81
2022/11/02 15:52:12;;;;;;;;;;;;;;;;;;5049059;28;19909;-81
2022/11/02 15:54:38;;;;;;;;;;;;;;;;;;5049999;28;19913;-81
2022/11/02 15:57:04;;;;;;;;;;;;;;;;;;5049599;28;20304;-81
2022/11/02 15:59:30;;;;;;;;;;;;;;;;;;5049993;28;19939;-81
2022/11/02 16:01:55;;;;;;;;;;;;;;;;;;5049195;28;20026;-81
2022/11/02 16:04:21;;;;;;;;;;;;;;;;;;5049911;28;19920;-81
2022/11/02 16:06:48;;;;;;;;;;;;;;;;;;5049804;28;20491;-80
2022/11/02 16:09:14;;;;;;;;;;;;;;;;;;5050071;28;19912;-81
2022/11/02 16:11:40;;;;;;;;;;;;;;;;;;5049014;28;19913;-82
2022/11/02 16:14:05;;;;;;;;;;;;;;;;;;5046516;28;19956;-82
2022/11/02 16:16:31;;;;;;;;;;;;;;;;;;5049725;28;19941;-82
2022/11/02 16:18:57;;;;;;;;;;;;;;;;;;5049686;28;19913;-81
2022/11/02 16:21:23;;;;;;;;;;;;;;;;;;5049342;28;19908;-81
2022/11/02 16:23:49;;;;;;;;;;;;;;;;;;5028821;28;19943;-78
2022/11/02 16:26:18;;;;;;;;;;;;;;;;;;5048821;28;19917;-82
2022/11/02 16:28:44;;;;;;;;;;;;;;;;;;5040665;28;19913;-82
2022/11/02 16:31:10;;;;;;;;;;;;;;;;;;5049631;28;19966;-81
2022/11/02 16:33:36;;;;;;;;;;;;;;;;;;5046947;28;20372;-78
2022/11/02 16:36:01;;;;;;;;;;;;;;;;;;5049581;28;19952;-79
2022/11/02 16:38:28;;;;;;;;;;;;;;;;;;5049943;28;19916;-78
2022/11/02 16:40:54;;;;;;;;;;;;;;;;;;5048713;28;19936;-79
2022/11/02 16:43:19;;;;;;;;;;;;;;;;;;5049297;28;19916;-76
2022/11/02 16:45:45;;;;;;;;;;;;;;;;;;5048442;28;19913;-78
2022/11/02 16:48:11;;;;;;;;;;;;;;;;;;5048543;28;20372;-81
2022/11/02 16:50:37;;;;;;;;;;;;;;;;;;5048282;28;19919;-79